Time;durP1;ratioP1;P1;durP2;ratioP2;P2;SDS_P1;SDS_P2;PMS_P1;PMS_P2;Temp;Humidity;BMP_temperature;BMP_pressure;BME280_temperature;BME280_humidity;BME280_pressure;Samples;Min_cycle;Max_cycle;Signal;HPM_P1;HPM_P2
2024/01/10 00:00:26;;;;;;;21.10;11.87;;;;;-7.10;94476.00;;;;7401153;19;20490;-75
2024/01/10 00:03:00;;;;;;;20.43;11.37;;;;;-7.00;94471.00;;;;7400930;19;20136;-74
2024/01/10 00:05:34;;;;;;;21.13;10.83;;;;;-7.00;94482.00;;;;7401181;19;20163;-74
2024/01/10 00:08:02;;;;;;;23.10;11.70;;;;;-7.00;94478.00;;;;7400720;19;20136;-75
2024/01/10 00:10:36;;;;;;;23.97;11.97;;;;;-7.00;94476.00;;;;7398994;19;20199;-74
2024/01/10 00:13:04;;;;;;;20.77;11.37;;;;;-7.00;94466.00;;;;7402022;19;20487;-74
2024/01/10 00:15:38;;;;;;;20.93;10.53;;;;;-7.10;94466.00;;;;7401030;19;20168;-74
2024/01/10 00:18:05;;;;;;;19.97;9.83;;;;;-7.10;94460.00;;;;7400124;19;20161;-74
2024/01/10 00:20:33;;;;;;;18.30;9.73;;;;;-7.00;94451.00;;;;7397675;19;20132;-74
2024/01/10 00:23:13;;;;;;;18.43;9.93;;;;;-7.00;94450.00;;;;7400678;19;20146;-75
2024/01/10 00:25:48;;;;;;;21.50;10.00;;;;;-6.90;94460.00;;;;7400761;19;20152;-75
2024/01/10 00:28:23;;;;;;;17.67;10.13;;;;;-6.90;94444.00;;;;7401687;19;20463;-75
2024/01/10 00:30:57;;;;;;;20.77;10.13;;;;;-7.00;94444.00;;;;7399351;19;20153;-76
2024/01/10 00:33:31;;;;;;;18.23;9.50;;;;;-7.00;94446.00;;;;7400127;19;20136;-76
2024/01/10 00:36:06;;;;;;;19.20;9.70;;;;;-7.20;94441.00;;;;7400370;19;20148;-74
2024/01/10 00:38:34;;;;;;;18.07;10.33;;;;;-7.10;94441.00;;;;7400419;19;20151;-74
2024/01/10 00:41:08;;;;;;;16.87;10.13;;;;;-7.20;94446.00;;;;7400310;19;20148;-74
2024/01/10 00:43:36;;;;;;;17.53;10.30;;;;;-7.20;94440.00;;;;7399065;19;20177;-74
2024/01/10 00:46:11;;;;;;;17.30;9.73;;;;;-7.20;94442.00;;;;7399978;19;20146;-74
2024/01/10 00:48:46;;;;;;;18.80;9.60;;;;;-7.30;94441.00;;;;7400095;19;20212;-76
2024/01/10 00:51:13;;;;;;;26.83;10.87;;;;;-7.20;94438.00;;;;7398239;19;20532;-74
2024/01/10 00:53:48;;;;;;;17.60;10.03;;;;;-7.30;94443.00;;;;7399873;19;20527;-74
2024/01/10 00:56:22;;;;;;;20.13;10.17;;;;;-7.20;94435.00;;;;7399227;19;20166;-77
2024/01/10 00:58:49;;;;;;;17.50;9.70;;;;;-7.10;94444.00;;;;7399276;19;20137;-76
2024/01/10 01:01:25;;;;;;;19.33;10.40;;;;;-7.20;94436.00;;;;7398604;19;20257;-77
2024/01/10 01:03:53;;;;;;;21.07;10.37;;;;;-7.10;94428.00;;;;7400869;19;20588;-77
2024/01/10 01:06:27;;;;;;;18.77;10.40;;;;;-7.20;94433.00;;;;7399356;19;20602;-76
2024/01/10 01:09:01;;;;;;;22.47;10.53;;;;;-7.10;94437.00;;;;7399513;19;20611;-76
2024/01/10 01:11:35;;;;;;;22.07;10.17;;;;;-7.10;94441.00;;;;7397947;19;20613;-79
2024/01/10 01:14:09;;;;;;;20.20;9.67;;;;;-6.90;94447.00;;;;7399194;19;20155;-76
2024/01/10 01:16:36;;;;;;;17.27;9.50;;;;;-7.00;94442.00;;;;7399621;19;20192;-76
2024/01/10 01:19:11;;;;;;;21.30;10.53;;;;;-7.20;94446.00;;;;7400367;19;20142;-76
2024/01/10 01:21:38;;;;;;;19.40;10.43;;;;;-7.10;94438.00;;;;7399394;19;20137;-76
2024/01/10 01:24:13;;;;;;;17.17;9.80;;;;;-7.20;94426.00;;;;7399079;19;20626;-77
2024/01/10 01:26:47;;;;;;;19.20;9.53;;;;;-7.10;94426.00;;;;7399059;19;20584;-76
2024/01/10 01:29:14;;;;;;;18.27;10.00;;;;;-7.00;94426.00;;;;7398726;19;20148;-77
2024/01/10 01:31:49;;;;;;;17.07;9.83;;;;;-7.20;94422.00;;;;7396306;19;20132;-76
2024/01/10 01:34:17;;;;;;;21.83;10.30;;;;;-7.20;94420.00;;;;7398407;19;20148;-76
2024/01/10 01:36:51;;;;;;;18.10;10.23;;;;;-7.20;94426.00;;;;7398241;19;20136;-76
2024/01/10 01:39:19;;;;;;;17.20;9.33;;;;;-7.20;94429.00;;;;7398893;19;20600;-75
2024/01/10 01:41:53;;;;;;;16.90;9.40;;;;;-7.30;94438.00;;;;7397650;19;20160;-76
2024/01/10 01:44:21;;;;;;;17.77;9.13;;;;;-7.20;94435.00;;;;7398422;19;20608;-76
2024/01/10 01:46:49;;;;;;;18.50;10.30;;;;;-7.20;94436.00;;;;7400271;19;20128;-76
2024/01/10 01:49:24;;;;;;;17.83;9.20;;;;;-7.20;94434.00;;;;7400165;19;20476;-75
2024/01/10 01:51:53;;;;;;;17.73;9.77;;;;;-7.20;94442.00;;;;7396643;19;20157;-76
2024/01/10 01:54:27;;;;;;;21.40;10.87;;;;;-7.10;94434.00;;;;7398434;19;20147;-76
2024/01/10 01:57:02;;;;;;;17.47;9.67;;;;;-7.10;94426.00;;;;7398927;19;20620;-76
2024/01/10 01:59:36;;;;;;;20.57;10.40;;;;;-7.20;94435.00;;;;7398743;19;20635;-76
2024/01/10 02:02:11;;;;;;;16.87;9.53;;;;;-7.10;94435.00;;;;7398352;19;20149;-77
2024/01/10 02:04:47;;;;;;;18.07;10.10;;;;;-7.20;94301.00;;;;7398765;19;20629;-77
2024/01/10 02:07:21;;;;;;;18.80;9.80;;;;;-7.10;94425.00;;;;7405790;19;20148;-78
2024/01/10 02:09:55;;;;;;;18.97;10.43;;;;;-6.90;94427.00;;;;7408576;19;20145;-79
2024/01/10 02:12:29;;;;;;;20.23;10.40;;;;;-7.10;94436.00;;;;7406802;19;20142;-78
2024/01/10 02:14:57;;;;;;;24.53;10.73;;;;;-7.10;94418.00;;;;7408804;19;20145;-80
2024/01/10 02:17:31;;;;;;;18.37;9.93;;;;;-7.00;94424.00;;;;7408003;19;20159;-79
2024/01/10 02:20:12;;;;;;;19.20;10.20;;;;;-7.00;94422.00;;;;7408548;19;20144;-79
2024/01/10 02:22:54;;;;;;;18.17;10.47;;;;;-7.30;94428.00;;;;7407125;19;20171;-78
2024/01/10 02:25:28;;;;;;;23.77;10.80;;;;;-7.20;94418.00;;;;7407683;19;20161;-79
2024/01/10 02:28:03;;;;;;;18.93;10.00;;;;;-7.20;94418.00;;;;7410266;19;20153;-79
2024/01/10 02:30:31;;;;;;;19.20;10.03;;;;;-7.30;94421.00;;;;7409949;19;20137;-79
2024/01/10 02:33:05;;;;;;;17.47;10.00;;;;;-7.40;94422.00;;;;7408905;19;20132;-79
2024/01/10 02:35:39;;;;;;;17.97;9.33;;;;;-7.40;94421.00;;;;7408777;19;20137;-79
2024/01/10 02:38:13;;;;;;;18.60;9.53;;;;;-7.50;94418.00;;;;7407185;19;20185;-79
2024/01/10 02:40:47;;;;;;;19.87;10.70;;;;;-7.50;94400.00;;;;7409940;19;20651;-79
2024/01/10 02:43:21;;;;;;;23.60;10.40;;;;;-7.60;94412.00;;;;7408040;19;20643;-79
2024/01/10 02:45:55;;;;;;;20.77;10.40;;;;;-7.50;94410.00;;;;7415787;19;20156;-79
2024/01/10 02:48:30;;;;;;;16.87;9.77;;;;;-7.50;94409.00;;;;7418185;19;20153;-79
2024/01/10 02:51:04;;;;;;;22.07;9.97;;;;;-7.50;94402.00;;;;7414375;19;20208;-79
2024/01/10 02:53:38;;;;;;;18.23;9.43;;;;;-7.40;94413.00;;;;7414343;19;20160;-78
2024/01/10 02:56:12;;;;;;;17.93;9.93;;;;;-7.40;94403.00;;;;7415572;19;20140;-79
2024/01/10 02:58:39;;;;;;;21.53;9.80;;;;;-7.40;94398.00;;;;7415751;19;20204;-79
2024/01/10 03:01:15;;;;;;;19.67;10.40;;;;;-7.40;94404.00;;;;7416217;19;20135;-79
2024/01/10 03:03:49;;;;;;;19.50;10.73;;;;;-7.30;94397.00;;;;7415441;19;20139;-79
2024/01/10 03:06:23;;;;;;;17.37;9.10;;;;;-7.20;94401.00;;;;7414590;19;20140;-79
2024/01/10 03:08:51;;;;;;;16.87;9.83;;;;;-7.30;94407.00;;;;7414106;19;20168;-78
2024/01/10 03:11:25;;;;;;;19.43;10.47;;;;;-7.00;94406.00;;;;7413016;19;20136;-78
2024/01/10 03:14:02;;;;;;;21.27;10.27;;;;;-7.20;94401.00;;;;7415758;19;20631;-79
2024/01/10 03:16:37;;;;;;;19.23;10.07;;;;;-6.90;94406.00;;;;7410074;19;20127;-75
2024/01/10 03:19:05;;;;;;;17.27;10.27;;;;;-6.80;94397.00;;;;7403304;19;20141;-76
2024/01/10 03:21:51;;;;;;;19.57;10.00;;;;;-6.60;94395.00;;;;7403319;19;20164;-76
2024/01/10 03:24:27;;;;;;;20.10;10.47;;;;;-6.60;94386.00;;;;7403758;19;20209;-76
2024/01/10 03:27:02;;;;;;;18.80;10.33;;;;;-6.80;94387.00;;;;7403460;19;20208;-76
2024/01/10 03:29:29;;;;;;;18.67;9.83;;;;;-6.70;94392.00;;;;7403543;19;20133;-76
2024/01/10 03:32:04;;;;;;;16.83;9.70;;;;;-6.80;94393.00;;;;7403435;19;20136;-76
2024/01/10 03:34:38;;;;;;;19.37;11.10;;;;;-6.70;94390.00;;;;7403351;19;20148;-77
2024/01/10 03:37:12;;;;;;;22.47;11.20;;;;;-6.80;94384.00;;;;7403132;19;20141;-76
2024/01/10 03:39:39;;;;;;;19.00;10.27;;;;;-7.00;94384.00;;;;7403777;19;20154;-77
2024/01/10 03:42:15;;;;;;;19.77;9.73;;;;;-6.90;94387.00;;;;7402851;19;20623;-77
2024/01/10 03:44:43;;;;;;;19.47;11.40;;;;;-6.90;94378.00;;;;7403097;19;20230;-77
2024/01/10 03:47:17;;;;;;;21.47;11.40;;;;;-6.90;94400.00;;;;7401799;19;20144;-75
2024/01/10 03:49:51;;;;;;;22.33;11.33;;;;;-7.10;94390.00;;;;7403318;19;20146;-76
2024/01/10 03:52:25;;;;;;;22.27;12.10;;;;;-7.30;94387.00;;;;7399192;19;20148;-76
2024/01/10 03:54:53;;;;;;;22.00;11.80;;;;;-7.00;94393.00;;;;7403201;19;20129;-76
2024/01/10 03:57:27;;;;;;;23.63;12.77;;;;;-7.20;94396.00;;;;7403064;19;20138;-76
2024/01/10 03:59:54;;;;;;;21.07;11.60;;;;;-7.20;94395.00;;;;7402956;19;20608;-75
2024/01/10 04:02:29;;;;;;;25.17;12.27;;;;;-7.30;94402.00;;;;7401599;19;20121;-76
2024/01/10 04:05:15;;;;;;;21.40;11.73;;;;;-7.20;94404.00;;;;7403872;19;20140;-75
2024/01/10 04:07:49;;;;;;;24.20;12.17;;;;;-7.30;94401.00;;;;7401077;19;20166;-76
2024/01/10 04:10:24;;;;;;;25.10;11.87;;;;;-7.10;94403.00;;;;7402708;19;20125;-76
2024/01/10 04:12:52;;;;;;;21.70;11.50;;;;;-7.20;94398.00;;;;7399902;19;20129;-76
2024/01/10 04:15:28;;;;;;;24.23;11.73;;;;;-7.20;94401.00;;;;7403042;19;20140;-76
2024/01/10 04:17:55;;;;;;;23.13;11.53;;;;;-7.10;94404.00;;;;7403246;19;20592;-76
2024/01/10 04:20:30;;;;;;;27.60;12.53;;;;;-7.20;94412.00;;;;7401691;19;20146;-76
2024/01/10 04:23:11;;;;;;;22.20;12.70;;;;;-7.20;94406.00;;;;7399428;19;20164;-77
2024/01/10 04:25:48;;;;;;;26.67;12.03;;;;;-7.20;94420.00;;;;7402996;19;20129;-75
2024/01/10 04:28:22;;;;;;;21.70;12.23;;;;;-7.20;94408.00;;;;7403714;19;20569;-75
2024/01/10 04:30:56;;;;;;;24.30;12.40;;;;;-7.00;94416.00;;;;7400979;19;20132;-75
2024/01/10 04:33:30;;;;;;;23.30;12.73;;;;;-6.90;94412.00;;;;7401415;19;20596;-76
2024/01/10 04:35:57;;;;;;;21.73;12.23;;;;;-7.00;94415.00;;;;7401816;19;20148;-78
2024/01/10 04:38:32;;;;;;;21.30;11.83;;;;;-6.80;94419.00;;;;7401884;19;20158;-75
2024/01/10 04:41:06;;;;;;;22.53;11.93;;;;;-6.90;94418.00;;;;7400868;19;20625;-78
2024/01/10 04:43:41;;;;;;;20.17;11.47;;;;;-6.80;94417.00;;;;7397733;19;20177;-75
2024/01/10 04:46:10;;;;;;;22.33;11.97;;;;;-6.70;94422.00;;;;7400363;19;20800;-74
2024/01/10 04:48:37;;;;;;;22.93;12.17;;;;;-6.70;94412.00;;;;7401238;19;20154;-75
2024/01/10 04:51:18;;;;;;;21.43;11.67;;;;;-6.90;94405.00;;;;7401145;19;20154;-75
2024/01/10 04:53:46;;;;;;;24.10;13.03;;;;;-6.90;94404.00;;;;7401219;19;20145;-77
2024/01/10 04:56:20;;;;;;;26.10;12.43;;;;;-6.70;94404.00;;;;7401478;19;20137;-78
2024/01/10 04:58:48;;;;;;;24.37;12.67;;;;;-6.90;94407.00;;;;7400091;19;20141;-77
2024/01/10 05:01:23;;;;;;;21.37;10.93;;;;;-7.00;94407.00;;;;7401772;19;20584;-75
2024/01/10 05:03:57;;;;;;;21.33;11.13;;;;;-7.10;94403.00;;;;7399737;19;20164;-76
2024/01/10 05:06:25;;;;;;;25.30;12.17;;;;;-7.20;94407.00;;;;7398394;19;20156;-76
2024/01/10 05:08:57;;;;;;;21.80;11.90;;;;;-7.10;94392.00;;;;7400139;19;20143;-75
2024/01/10 05:11:31;;;;;;;25.47;11.53;;;;;-7.40;94396.00;;;;7401640;19;20121;-75
2024/01/10 05:13:59;;;;;;;30.60;16.17;;;;;-7.40;94394.00;;;;7399594;19;20504;-75
2024/01/10 05:16:26;;;;;;;35.93;18.03;;;;;-7.50;94394.00;;;;7399363;19;20158;-75
2024/01/10 05:19:03;;;;;;;23.43;12.17;;;;;-7.40;94396.00;;;;7401545;19;20133;-76
2024/01/10 05:21:44;;;;;;;23.37;11.70;;;;;-7.40;94404.00;;;;7399060;19;20261;-76
2024/01/10 05:24:19;;;;;;;22.67;11.53;;;;;-7.40;94405.00;;;;7398779;19;20616;-76
2024/01/10 05:26:51;;;;;;;20.93;12.60;;;;;-7.50;94400.00;;;;7400133;19;20167;-76
2024/01/10 05:29:25;;;;;;;23.87;12.63;;;;;-7.60;94398.00;;;;7394212;19;20289;-77
2024/01/10 05:31:53;;;;;;;23.03;12.23;;;;;-7.70;94404.00;;;;7391672;19;20125;-75
2024/01/10 05:34:27;;;;;;;22.77;12.70;;;;;-7.80;94401.00;;;;7389136;19;20148;-76
2024/01/10 05:36:54;;;;;;;26.30;13.03;;;;;-7.90;94401.00;;;;7392165;19;20148;-77
2024/01/10 05:39:29;;;;;;;25.73;13.00;;;;;-7.90;94415.00;;;;7390759;19;20628;-78
2024/01/10 05:42:06;;;;;;;22.50;12.27;;;;;-8.10;94409.00;;;;7393258;19;20639;-79
2024/01/10 05:44:40;;;;;;;19.90;11.63;;;;;-8.30;94415.00;;;;7393084;19;20152;-80
2024/01/10 05:47:08;;;;;;;23.63;12.93;;;;;-8.30;94419.00;;;;7394051;19;20129;-80
2024/01/10 05:49:43;;;;;;;21.60;12.07;;;;;-8.40;94413.00;;;;7395457;19;20158;-79
2024/01/10 05:52:11;;;;;;;23.83;12.73;;;;;-8.50;94409.00;;;;7393803;19;20488;-80
2024/01/10 05:54:48;;;;;;;23.63;13.30;;;;;-8.70;94400.00;;;;7390661;19;20148;-79
2024/01/10 05:57:16;;;;;;;27.67;12.97;;;;;-8.70;94413.00;;;;7392101;19;20648;-78
2024/01/10 05:59:44;;;;;;;25.13;12.80;;;;;-8.60;94412.00;;;;7390845;19;20129;-79
2024/01/10 06:02:18;;;;;;;23.60;12.77;;;;;-8.60;94412.00;;;;7393068;19;20134;-79
2024/01/10 06:04:52;;;;;;;25.10;12.53;;;;;-8.70;94421.00;;;;7391258;19;20148;-80
2024/01/10 06:07:29;;;;;;;24.80;12.77;;;;;-8.70;94408.00;;;;7390045;19;20159;-78
2024/01/10 06:10:04;;;;;;;25.80;13.17;;;;;-8.60;94414.00;;;;7391758;19;20159;-79
2024/01/10 06:12:38;;;;;;;24.80;12.13;;;;;-8.50;94406.00;;;;7390107;19;20139;-79
2024/01/10 06:15:07;;;;;;;24.90;12.77;;;;;-8.60;94407.00;;;;7391435;19;20132;-79
2024/01/10 06:17:42;;;;;;;24.83;13.67;;;;;-8.70;94405.00;;;;7389739;19;20152;-78
2024/01/10 06:20:16;;;;;;;32.83;13.47;;;;;-8.70;94405.00;;;;7399383;19;20573;-79
2024/01/10 06:22:46;;;;;;;24.03;13.13;;;;;-8.70;94396.00;;;;7399391;19;20704;-79
2024/01/10 06:25:20;;;;;;;21.40;12.80;;;;;-8.90;94406.00;;;;7396393;19;20479;-78
2024/01/10 06:27:54;;;;;;;29.47;14.27;;;;;-9.10;94413.00;;;;7397429;19;20488;-78
2024/01/10 06:30:28;;;;;;;24.80;12.40;;;;;-9.10;94406.00;;;;7397432;19;20748;-79
2024/01/10 06:32:56;;;;;;;25.07;13.40;;;;;-9.10;94405.00;;;;7397148;19;20519;-79
2024/01/10 06:35:30;;;;;;;21.83;12.67;;;;;-9.20;94403.00;;;;7397759;19;20222;-79
2024/01/10 06:38:04;;;;;;;23.60;12.40;;;;;-9.30;94402.00;;;;7398158;19;20148;-79
2024/01/10 06:40:32;;;;;;;23.53;12.50;;;;;-9.30;94406.00;;;;7400746;19;20592;-78
2024/01/10 06:43:08;;;;;;;24.50;13.47;;;;;-9.40;94408.00;;;;7396540;19;20652;-78
2024/01/10 06:45:43;;;;;;;26.03;13.33;;;;;-9.50;94409.00;;;;7397564;19;20140;-74
2024/01/10 06:48:10;;;;;;;24.77;13.23;;;;;-9.50;94412.00;;;;7394406;19;20147;-77
2024/01/10 06:50:45;;;;;;;27.40;13.87;;;;;-9.40;94420.00;;;;7394443;19;20499;-74
2024/01/10 06:53:13;;;;;;;26.77;13.53;;;;;-9.50;94405.00;;;;7393019;19;20159;-76
2024/01/10 06:55:48;;;;;;;25.20;13.63;;;;;-9.50;94424.00;;;;7394406;19;20138;-73
2024/01/10 06:58:16;;;;;;;24.63;13.07;;;;;-9.60;94415.00;;;;7394728;19;20145;-75
2024/01/10 07:00:50;;;;;;;25.10;12.67;;;;;-9.60;94429.00;;;;7393738;19;20144;-74
2024/01/10 07:03:24;;;;;;;26.17;13.17;;;;;-9.70;94434.00;;;;7394777;19;20465;-74
2024/01/10 07:05:58;;;;;;;22.40;13.03;;;;;-9.70;94424.00;;;;7394210;19;20657;-76
2024/01/10 07:08:32;;;;;;;25.73;13.97;;;;;-9.50;94440.00;;;;7392112;19;20137;-75
2024/01/10 07:11:06;;;;;;;25.63;13.07;;;;;-9.30;94446.00;;;;7394339;19;20145;-74
2024/01/10 07:13:41;;;;;;;25.97;14.07;;;;;-9.40;94451.00;;;;7393426;19;20155;-74
2024/01/10 07:16:10;;;;;;;24.93;13.63;;;;;-9.30;94454.00;;;;7394640;19;20164;-75
2024/01/10 07:18:46;;;;;;;29.47;15.57;;;;;-9.00;94445.00;;;;7394377;19;20158;-75
2024/01/10 07:21:21;;;;;;;26.97;14.90;;;;;-8.80;94442.00;;;;7395598;19;20131;-75
2024/01/10 07:24:02;;;;;;;25.57;14.83;;;;;-8.60;94447.00;;;;7393088;19;20256;-76
2024/01/10 07:26:38;;;;;;;24.63;13.93;;;;;-8.60;94445.00;;;;7392469;19;20157;-74
2024/01/10 07:29:12;;;;;;;29.83;15.37;;;;;-8.50;94445.00;;;;7392500;19;20148;-75
2024/01/10 07:31:41;;;;;;;32.13;16.07;;;;;-8.40;94450.00;;;;7395311;19;20149;-74
2024/01/10 07:34:18;;;;;;;31.37;17.13;;;;;-8.50;94449.00;;;;7392636;19;20485;-74
2024/01/10 07:36:54;;;;;;;32.60;16.57;;;;;-8.50;94437.00;;;;7393568;19;20207;-74
2024/01/10 07:39:28;;;;;;;32.13;17.47;;;;;-8.40;94449.00;;;;7393660;19;20146;-74
2024/01/10 07:42:02;;;;;;;36.03;17.77;;;;;-8.30;94446.00;;;;7391545;19;20155;-77
2024/01/10 07:44:37;;;;;;;33.33;17.43;;;;;-8.40;94439.00;;;;7393581;19;20141;-75
2024/01/10 07:47:05;;;;;;;32.80;17.70;;;;;-8.30;94451.00;;;;7392356;19;20465;-76
2024/01/10 07:49:41;;;;;;;35.50;18.63;;;;;-8.10;94450.00;;;;7393148;19;20577;-76
2024/01/10 07:52:09;;;;;;;35.57;18.90;;;;;-7.80;94454.00;;;;7392762;19;20613;-75
2024/01/10 07:54:43;;;;;;;34.63;18.30;;;;;-7.50;94469.00;;;;7392464;19;20144;-75
2024/01/10 07:57:11;;;;;;;38.57;19.03;;;;;-7.20;94463.00;;;;7394340;19;20152;-76
2024/01/10 07:59:47;;;;;;;34.63;17.97;;;;;-7.10;94465.00;;;;7393033;19;20272;-76
2024/01/10 08:02:15;;;;;;;36.80;19.70;;;;;-6.70;94453.00;;;;7392942;19;20145;-75
2024/01/10 08:04:43;;;;;;;34.20;18.63;;;;;-6.30;94459.00;;;;7393890;19;20144;-75
2024/01/10 08:07:17;;;;;;;36.47;17.60;;;;;-6.30;94451.00;;;;7392635;19;20146;-78
2024/01/10 08:09:45;;;;;;;36.07;18.63;;;;;-5.80;94461.00;;;;7394245;19;20140;-75
2024/01/10 08:12:19;;;;;;;32.63;17.90;;;;;-5.40;94450.00;;;;7393464;19;20616;-75
2024/01/10 08:14:49;;;;;;;29.50;16.40;;;;;-4.60;94458.00;;;;7394125;19;20153;-75
2024/01/10 08:17:25;;;;;;;30.47;16.80;;;;;-3.90;94455.00;;;;7394167;19;20145;-75
2024/01/10 08:19:53;;;;;;;31.90;16.00;;;;;-3.50;94456.00;;;;7393088;19;20148;-79
2024/01/10 08:22:27;;;;;;;27.47;15.07;;;;;-3.30;94461.00;;;;7392969;19;20181;-76
2024/01/10 08:25:09;;;;;;;26.70;15.40;;;;;-3.20;94459.00;;;;7391436;19;22772;-75
2024/01/10 08:27:37;;;;;;;26.43;15.13;;;;;-2.10;94455.00;;;;7393118;19;20145;-76
2024/01/10 08:30:13;;;;;;;31.87;15.37;;;;;-2.30;94459.00;;;;7393833;19;20488;-77
2024/01/10 08:32:41;;;;;;;29.00;15.77;;;;;-1.70;94459.00;;;;7392917;19;20482;-76
2024/01/10 08:35:16;;;;;;;26.73;14.87;;;;;-2.00;94461.00;;;;7392872;19;20635;-76
2024/01/10 08:37:44;;;;;;;25.07;14.80;;;;;-2.10;94458.00;;;;7394334;19;20144;-76
2024/01/10 08:40:21;;;;;;;26.50;14.63;;;;;-1.40;94455.00;;;;7392966;19;20172;-76
2024/01/10 08:42:55;;;;;;;24.40;14.07;;;;;-1.70;94463.00;;;;7391332;19;20209;-76
2024/01/10 08:45:24;;;;;;;26.33;14.90;;;;;-0.80;94459.00;;;;7394095;19;20872;-76
2024/01/10 08:47:59;;;;;;;27.17;15.27;;;;;-1.40;94454.00;;;;7391808;19;20203;-78
2024/01/10 08:50:27;;;;;;;27.83;13.97;;;;;-1.20;94449.00;;;;7392953;19;20151;-76
2024/01/10 08:53:05;;;;;;;27.20;15.53;;;;;-1.60;94448.00;;;;7392801;19;20536;-79
2024/01/10 08:55:33;;;;;;;28.77;15.10;;;;;-1.70;94463.00;;;;7391512;19;20724;-76
2024/01/10 08:58:08;;;;;;;27.07;15.27;;;;;-2.20;94464.00;;;;7392632;19;20152;-79
2024/01/10 09:00:43;;;;;;;27.03;15.63;;;;;-1.50;94475.00;;;;7389317;19;20137;-76
2024/01/10 09:03:19;;;;;;;26.10;14.80;;;;;-1.40;94485.00;;;;7390765;19;20168;-77
2024/01/10 09:05:47;;;;;;;26.00;14.97;;;;;-0.40;94473.00;;;;7391666;19;20503;-79
2024/01/10 09:08:35;;;;;;;24.83;14.97;;;;;-1.00;94481.00;;;;7386389;19;20147;-77
2024/01/10 09:11:09;;;;;;;26.17;16.23;;;;;-0.60;94478.00;;;;7391345;19;20152;-79
2024/01/10 09:13:44;;;;;;;24.40;15.03;;;;;-1.10;94475.00;;;;7393072;19;20159;-79
2024/01/10 09:16:20;;;;;;;25.47;14.77;;;;;-0.90;94487.00;;;;7392291;19;20152;-77
2024/01/10 09:18:49;;;;;;;25.27;14.80;;;;;-0.70;94483.00;;;;7392572;19;20604;-77
2024/01/10 09:21:20;;;;;;;29.07;15.63;;;;;0.00;94495.00;;;;7392139;19;20192;-78
2024/01/10 09:23:56;;;;;;;29.37;16.97;;;;;-0.20;94503.00;;;;7390266;19;20651;-77
2024/01/10 09:26:51;;;;;;;27.07;15.97;;;;;-0.30;94490.00;;;;7391892;19;20147;-77
2024/01/10 09:29:20;;;;;;;28.53;16.67;;;;;0.30;94487.00;;;;7391318;19;20160;-77
2024/01/10 09:31:54;;;;;;;25.17;15.87;;;;;1.10;94497.00;;;;7393236;19;20175;-79
2024/01/10 09:34:23;;;;;;;24.63;15.77;;;;;0.90;94496.00;;;;7391972;19;20140;-79
2024/01/10 09:37:02;;;;;;;29.93;16.33;;;;;0.50;94509.00;;;;7391055;19;20668;-78
2024/01/10 09:39:37;;;;;;;27.50;16.13;;;;;0.00;94507.00;;;;7392864;19;20154;-79
2024/01/10 09:42:14;;;;;;;29.77;16.13;;;;;0.40;94503.00;;;;7391036;19;20474;-78
2024/01/10 09:44:42;;;;;;;25.37;15.57;;;;;1.20;94513.00;;;;7391602;19;20141;-77
2024/01/10 09:47:24;;;;;;;26.07;16.23;;;;;1.60;94498.00;;;;7391106;19;20148;-77
2024/01/10 09:49:52;;;;;;;25.13;15.80;;;;;0.30;94507.00;;;;7390287;19;20123;-77
2024/01/10 09:52:29;;;;;;;25.07;15.13;;;;;0.10;94517.00;;;;7389107;19;21030;-77
2024/01/10 09:55:05;;;;;;;23.73;14.57;;;;;0.40;94512.00;;;;7390859;19;20163;-78
2024/01/10 09:57:34;;;;;;;26.73;15.67;;;;;0.70;94507.00;;;;7391695;19;20162;-78
2024/01/10 10:00:14;;;;;;;27.83;16.30;;;;;1.00;94509.00;;;;7390802;19;20497;-77
2024/01/10 10:02:45;;;;;;;30.17;15.57;;;;;1.60;94503.00;;;;7391115;19;20592;-78
2024/01/10 10:05:23;;;;;;;24.73;14.97;;;;;1.90;94508.00;;;;7390621;19;20148;-77
2024/01/10 10:07:55;;;;;;;21.77;14.57;;;;;1.50;94514.00;;;;7393453;19;20492;-78
2024/01/10 10:10:32;;;;;;;25.40;15.83;;;;;1.00;94504.00;;;;7389811;19;20129;-77
2024/01/10 10:13:07;;;;;;;25.67;15.43;;;;;1.90;94508.00;;;;7390028;19;20148;-78
2024/01/10 10:15:44;;;;;;;25.70;15.50;;;;;2.70;94504.00;;;;7390650;19;20144;-77
2024/01/10 10:18:15;;;;;;;24.77;15.77;;;;;2.20;94509.00;;;;7393704;19;20159;-77
2024/01/10 10:21:05;;;;;;;21.63;14.43;;;;;3.30;94514.00;;;;7389856;19;20147;-77
2024/01/10 10:24:01;;;;;;;26.50;15.27;;;;;2.70;94507.00;;;;7389865;19;20188;-78
2024/01/10 10:26:36;;;;;;;23.57;14.17;;;;;2.70;94498.00;;;;7390508;19;20132;-77
2024/01/10 10:29:10;;;;;;;28.13;16.00;;;;;3.30;94509.00;;;;7389562;19;20663;-77
2024/01/10 10:31:49;;;;;;;22.20;14.37;;;;;2.90;94505.00;;;;7389460;19;20144;-77
2024/01/10 10:34:23;;;;;;;25.50;15.43;;;;;2.50;94503.00;;;;7389286;19;20160;-81
2024/01/10 10:37:00;;;;;;;23.43;15.07;;;;;3.30;94507.00;;;;7390687;19;20153;-77
2024/01/10 10:39:28;;;;;;;23.07;14.70;;;;;3.30;94515.00;;;;7389849;19;20506;-78
2024/01/10 10:42:03;;;;;;;23.97;14.57;;;;;2.90;94511.00;;;;7389525;19;20636;-81
2024/01/10 10:44:41;;;;;;;26.17;15.67;;;;;3.30;94509.00;;;;7390966;19;20172;-78
2024/01/10 10:47:11;;;;;;;24.23;15.30;;;;;4.20;94504.00;;;;7388941;19;20148;-77
2024/01/10 10:49:52;;;;;;;21.50;14.90;;;;;3.60;94509.00;;;;7388466;19;20147;-78
2024/01/10 10:52:27;;;;;;;25.03;15.77;;;;;4.20;94511.00;;;;7388429;19;20295;-79
2024/01/10 10:55:04;;;;;;;29.20;15.20;;;;;4.30;94502.00;;;;7389214;19;20144;-79
2024/01/10 10:57:32;;;;;;;23.97;15.50;;;;;4.00;94503.00;;;;7390432;19;20125;-80
2024/01/10 11:00:08;;;;;;;23.87;15.17;;;;;4.60;94506.00;;;;7391644;19;20129;-79
2024/01/10 11:02:39;;;;;;;25.87;16.70;;;;;4.20;94502.00;;;;7388433;19;20478;-78
2024/01/10 11:05:15;;;;;;;22.23;15.40;;;;;4.10;94507.00;;;;7392861;19;20488;-78
2024/01/10 11:07:44;;;;;;;23.13;14.80;;;;;5.50;94500.00;;;;7395613;19;20148;-76
2024/01/10 11:10:30;;;;;;;31.90;19.13;;;;;4.70;94504.00;;;;7395212;19;20477;-76
2024/01/10 11:13:27;;;;;;;24.57;14.17;;;;;5.80;94510.00;;;;7396934;19;20143;-77
2024/01/10 11:16:35;;;;;;;22.20;14.57;;;;;4.90;94513.00;;;;7395667;19;20480;-76
2024/01/10 11:19:06;;;;;;;20.60;13.83;;;;;4.60;94513.00;;;;7395304;19;20188;-76
2024/01/10 11:21:53;;;;;;;21.97;14.03;;;;;5.30;94515.00;;;;7395481;19;20149;-76
2024/01/10 11:24:33;;;;;;;30.43;17.03;;;;;4.30;94518.00;;;;7394034;19;20149;-76
2024/01/10 11:27:15;;;;;;;21.97;14.73;;;;;6.10;94514.00;;;;7398192;19;20204;-80
2024/01/10 11:29:51;;;;;;;21.90;14.93;;;;;6.30;94512.00;;;;7395091;19;20148;-80
2024/01/10 11:32:27;;;;;;;23.40;15.60;;;;;6.20;94520.00;;;;7393216;19;20248;-80
2024/01/10 11:35:00;;;;;;;28.50;16.10;;;;;6.20;94516.00;;;;7395276;19;20160;-80
2024/01/10 11:37:47;;;;;;;24.10;15.60;;;;;6.20;94502.00;;;;7396583;19;20136;-81
2024/01/10 11:40:46;;;;;;;22.93;15.10;;;;;5.70;94503.00;;;;7395394;19;20620;-81
2024/01/10 11:43:22;;;;;;;24.40;16.00;;;;;5.60;94506.00;;;;7393358;19;20149;-78
2024/01/10 11:45:57;;;;;;;31.03;19.77;;;;;5.30;94503.00;;;;7391702;19;20143;-79
2024/01/10 11:48:32;;;;;;;21.77;14.73;;;;;6.50;94499.00;;;;7392768;19;20153;-78
2024/01/10 11:51:02;;;;;;;26.70;17.17;;;;;6.10;94505.00;;;;7394897;19;20648;-79
2024/01/10 11:53:42;;;;;;;26.53;17.53;;;;;5.80;94509.00;;;;7392180;19;20200;-79
2024/01/10 11:56:11;;;;;;;24.53;16.37;;;;;4.80;94512.00;;;;7392850;19;20212;-78
2024/01/10 11:59:08;;;;;;;25.43;16.47;;;;;6.20;94517.00;;;;7393777;19;20125;-78
2024/01/10 12:01:45;;;;;;;23.03;15.57;;;;;5.10;94520.00;;;;7391842;19;20144;-77
2024/01/10 12:04:14;;;;;;;38.50;25.10;;;;;5.80;94517.00;;;;7389878;19;20482;-78
2024/01/10 12:07:04;;;;;;;25.70;17.80;;;;;6.50;94524.00;;;;7394928;19;20133;-77
2024/01/10 12:09:39;;;;;;;21.43;15.30;;;;;6.50;94517.00;;;;7393689;19;20160;-77
2024/01/10 12:12:15;;;;;;;24.50;14.73;;;;;6.10;94518.00;;;;7394824;19;20136;-78
2024/01/10 12:14:51;;;;;;;25.23;16.45;;;;;6.10;94515.00;;;;7393938;19;20164;-78
2024/01/10 12:17:29;;;;;;;20.07;13.93;;;;;7.00;94514.00;;;;7394529;19;20148;-78
2024/01/10 12:20:03;;;;;;;26.77;17.33;;;;;6.90;94512.00;;;;7392456;19;20156;-77
2024/01/10 12:22:51;;;;;;;23.07;14.27;;;;;7.00;94523.00;;;;7391711;19;20644;-78
2024/01/10 12:25:26;;;;;;;20.92;12.95;;;;;6.70;94521.00;;;;7392814;19;20664;-77
2024/01/10 12:28:06;;;;;;;21.27;13.80;;;;;6.60;94524.00;;;;7395196;19;20128;-77
2024/01/10 12:30:41;;;;;;;30.23;19.02;;;;;6.90;94521.00;;;;7394316;19;20129;-78
2024/01/10 12:33:17;;;;;;;19.80;14.53;;;;;7.00;94515.00;;;;7394054;19;20144;-78
2024/01/10 12:36:06;;;;;;;20.65;14.95;;;;;7.00;94510.00;;;;7390320;19;20145;-80